Time;durP1;ratioP1;P1;durP2;ratioP2;P2;SDS_P1;SDS_P2;PMS_P1;PMS_P2;Temp;Humidity;BMP_temperature;BMP_pressure;BME280_temperature;BME280_humidity;BME280_pressure;Samples;Min_cycle;Max_cycle;Signal;HPM_P1;HPM_P2
2021/11/13 00:00:07;;;;;;;;;;;;;;;;;;2060736;28;1315;-96
2021/11/13 00:01:20;;;;;;;;;;;;;;;;;;2069080;28;1910;-95
2021/11/13 00:02:25;;;;;;;;;;;;;;;;;;2060154;28;1036;-95
2021/11/13 00:03:29;;;;;;;;;;;;;;;;;;2052742;28;1488;-96
2021/11/13 00:04:31;;;;;;;;;;;;;;;;;;2068331;28;1333;-95
2021/11/13 00:05:36;;;;;;;;;;;;;;;;;;2067839;28;1428;-95
2021/11/13 00:06:37;;;;;;;;;;;;;;;;;;2067133;28;2094;-95
2021/11/13 00:07:41;;;;;;;;;;;;;;;;;;2067710;28;1101;-95
2021/11/13 00:08:43;;;;;;;;;;;;;;;;;;2060090;28;1467;-95
2021/11/13 00:09:44;;;;;;;;;;;;;;;;;;2051496;28;1412;-95
2021/11/13 00:10:48;;;;;;;;;;;;;;;;;;2052190;28;1272;-95
2021/11/13 00:11:50;;;;;;;;;;;;;;;;;;2060294;28;860;-95
2021/11/13 00:12:53;;;;;;;;;;;;;;;;;;2067326;28;1252;-95
2021/11/13 00:14:02;;;;;;;;;;;;;;;;;;2059808;28;1326;-95
2021/11/13 00:15:04;;;;;;;;;;;;;;;;;;2060040;28;1408;-95
2021/11/13 00:16:08;;;;;;;;;;;;;;;;;;2059565;28;1504;-95
2021/11/13 00:17:12;;;;;;;;;;;;;;;;;;2060171;28;1914;-95
2021/11/13 00:18:17;;;;;;;;;;;;;;;;;;2059860;28;1438;-95
2021/11/13 00:19:19;;;;;;;;;;;;;;;;;;2044608;29;1143;-94
2021/11/13 00:20:28;;;;;;;;;;;;;;;;;;2051292;28;1116;-93
2021/11/13 00:21:32;;;;;;;;;;;;;;;;;;2064838;28;1436;-93
2021/11/13 00:24:05;;;;;;;;;;;;;;;;;;2060469;28;1687;-91
2021/11/13 00:25:10;;;;;;;;;;;;;;;;;;2050768;28;1483;-92
2021/11/13 00:26:16;;;;;;;;;;;;;;;;;;2043558;28;1485;-91
2021/11/13 00:28:39;;;;;;;;;;;;;;;;;;2061379;28;894;-92
2021/11/13 00:29:40;;;;;;;;;;;;;;;;;;2066986;28;1226;-92
2021/11/13 00:30:45;;;;;;;;;;;;;;;;;;2050714;28;1500;-92
2021/11/13 00:31:53;;;;;;;;;;;;;;;;;;2052328;28;1214;-93
2021/11/13 00:33:15;;;;;;;;;;;;;;;;;;2059982;28;2031;-92
2021/11/13 00:34:31;;;;;;;;;;;;;;;;;;2061249;28;873;-92
2021/11/13 00:35:41;;;;;;;;;;;;;;;;;;2060446;28;1433;-92
2021/11/13 00:36:43;;;;;;;;;;;;;;;;;;2060226;28;1333;-92
2021/11/13 00:37:55;;;;;;;;;;;;;;;;;;2066562;28;1975;-92
2021/11/13 00:38:56;;;;;;;;;;;;;;;;;;2066992;28;1480;-92
2021/11/13 00:42:49;;;;;;;;;;;;;;;;;;2069131;28;1701;-92
2021/11/13 00:43:55;;;;;;;;;;;;;;;;;;2075341;28;981;-92
2021/11/13 00:47:46;;;;;;;;;;;;;;;;;;2066022;28;1542;-93
2021/11/13 00:48:54;;;;;;;;;;;;;;;;;;2059853;28;1424;-93
2021/11/13 00:50:10;;;;;;;;;;;;;;;;;;2059806;28;1326;-93
2021/11/13 00:51:21;;;;;;;;;;;;;;;;;;2066456;28;1253;-92
2021/11/13 00:52:24;;;;;;;;;;;;;;;;;;2068733;28;811;-93
2021/11/13 00:53:30;;;;;;;;;;;;;;;;;;2069046;28;1949;-93
2021/11/13 00:54:57;;;;;;;;;;;;;;;;;;2067669;28;801;-93
2021/11/13 00:58:42;;;;;;;;;;;;;;;;;;2068004;28;2050;-92
2021/11/13 00:59:44;;;;;;;;;;;;;;;;;;2067080;28;1391;-93
2021/11/13 01:00:57;;;;;;;;;;;;;;;;;;2058894;28;1221;-92
2021/11/13 01:02:04;;;;;;;;;;;;;;;;;;2052735;28;1589;-93
2021/11/13 01:03:15;;;;;;;;;;;;;;;;;;2051717;28;958;-92
2021/11/13 01:04:22;;;;;;;;;;;;;;;;;;2052131;28;1326;-93
2021/11/13 01:05:27;;;;;;;;;;;;;;;;;;2060040;28;1397;-93
2021/11/13 01:06:32;;;;;;;;;;;;;;;;;;2050622;28;1333;-94
2021/11/13 01:07:35;;;;;;;;;;;;;;;;;;2036146;29;1344;-93
2021/11/13 01:08:37;;;;;;;;;;;;;;;;;;2050245;28;1404;-92
2021/11/13 01:09:42;;;;;;;;;;;;;;;;;;2058150;28;1223;-95
2021/11/13 01:10:48;;;;;;;;;;;;;;;;;;2059031;28;1213;-95
2021/11/13 01:11:49;;;;;;;;;;;;;;;;;;2051283;28;1693;-95
2021/11/13 01:12:51;;;;;;;;;;;;;;;;;;2050805;28;1210;-95
2021/11/13 01:13:54;;;;;;;;;;;;;;;;;;2050624;28;1279;-95
2021/11/13 01:14:56;;;;;;;;;;;;;;;;;;2051318;28;1223;-95
2021/11/13 01:15:58;;;;;;;;;;;;;;;;;;2050772;28;1368;-95
2021/11/13 01:17:02;;;;;;;;;;;;;;;;;;2057991;28;1234;-94
2021/11/13 01:18:05;;;;;;;;;;;;;;;;;;2056427;28;1919;-94
2021/11/13 01:19:07;;;;;;;;;;;;;;;;;;2051126;28;1422;-95
2021/11/13 01:20:11;;;;;;;;;;;;;;;;;;2050894;28;1221;-94
2021/11/13 01:21:20;;;;;;;;;;;;;;;;;;2054279;28;2133;-94
2021/11/13 01:22:21;;;;;;;;;;;;;;;;;;2059462;28;1289;-95
2021/11/13 01:23:23;;;;;;;;;;;;;;;;;;2050444;29;1240;-94
2021/11/13 01:24:30;;;;;;;;;;;;;;;;;;2052433;28;920;-94
2021/11/13 01:26:50;;;;;;;;;;;;;;;;;;2055437;28;1346;-95
2021/11/13 01:27:53;;;;;;;;;;;;;;;;;;2058652;28;1064;-94
2021/11/13 01:28:57;;;;;;;;;;;;;;;;;;2066606;28;1445;-95
2021/11/13 01:29:58;;;;;;;;;;;;;;;;;;2059098;28;1306;-94
2021/11/13 01:31:08;;;;;;;;;;;;;;;;;;2058515;28;1428;-95
2021/11/13 01:32:10;;;;;;;;;;;;;;;;;;2058789;28;1326;-95
2021/11/13 01:33:15;;;;;;;;;;;;;;;;;;2059003;28;1106;-94
2021/11/13 01:34:16;;;;;;;;;;;;;;;;;;2066151;28;1303;-95
2021/11/13 01:35:24;;;;;;;;;;;;;;;;;;2068319;28;946;-94
2021/11/13 01:36:29;;;;;;;;;;;;;;;;;;2074026;28;2138;-95
2021/11/13 01:37:37;;;;;;;;;;;;;;;;;;2068850;28;1969;-96
2021/11/13 01:38:40;;;;;;;;;;;;;;;;;;2055190;28;2161;-96
2021/11/13 01:39:44;;;;;;;;;;;;;;;;;;2047448;28;1403;-95
2021/11/13 01:40:45;;;;;;;;;;;;;;;;;;2054719;28;1235;-95
2021/11/13 01:41:48;;;;;;;;;;;;;;;;;;2062205;28;1788;-95
2021/11/13 01:42:51;;;;;;;;;;;;;;;;;;2054578;28;1409;-95
2021/11/13 01:43:54;;;;;;;;;;;;;;;;;;2054662;28;1286;-95
2021/11/13 01:44:57;;;;;;;;;;;;;;;;;;2070232;28;1257;-95
2021/11/13 01:46:00;;;;;;;;;;;;;;;;;;2061800;28;1890;-95
2021/11/13 01:47:07;;;;;;;;;;;;;;;;;;2054131;28;1629;-95
2021/11/13 01:48:08;;;;;;;;;;;;;;;;;;2070594;28;1346;-95
2021/11/13 01:49:11;;;;;;;;;;;;;;;;;;2061998;28;1504;-96
2021/11/13 01:50:14;;;;;;;;;;;;;;;;;;2062012;28;1254;-95
2021/11/13 01:51:18;;;;;;;;;;;;;;;;;;2061917;28;1193;-95
2021/11/13 01:52:33;;;;;;;;;;;;;;;;;;2069825;28;1321;-95
2021/11/13 01:53:34;;;;;;;;;;;;;;;;;;2055264;28;1323;-94
2021/11/13 01:54:40;;;;;;;;;;;;;;;;;;2045667;28;1221;-95
2021/11/13 01:55:42;;;;;;;;;;;;;;;;;;2054436;28;1382;-95
2021/11/13 01:56:44;;;;;;;;;;;;;;;;;;2061343;28;2049;-95
2021/11/13 01:57:48;;;;;;;;;;;;;;;;;;2069363;28;1948;-96
2021/11/13 01:58:52;;;;;;;;;;;;;;;;;;2068856;28;1378;-95
2021/11/13 01:59:53;;;;;;;;;;;;;;;;;;2060683;28;1282;-96
2021/11/13 02:00:59;;;;;;;;;;;;;;;;;;2046370;28;2190;-96
2021/11/13 02:02:00;;;;;;;;;;;;;;;;;;2046896;28;1395;-96
2021/11/13 02:03:09;;;;;;;;;;;;;;;;;;2053739;28;1303;-95
2021/11/13 02:04:10;;;;;;;;;;;;;;;;;;2062047;28;1326;-96
2021/11/13 02:05:14;;;;;;;;;;;;;;;;;;2069242;28;1295;-95
2021/11/13 02:06:16;;;;;;;;;;;;;;;;;;2069151;28;1373;-94
2021/11/13 02:07:27;;;;;;;;;;;;;;;;;;2069461;28;1282;-95
2021/11/13 02:08:28;;;;;;;;;;;;;;;;;;2062255;28;1394;-95
2021/11/13 02:09:30;;;;;;;;;;;;;;;;;;2068971;28;1304;-94
2021/11/13 02:10:33;;;;;;;;;;;;;;;;;;2061495;28;1578;-95
2021/11/13 02:11:43;;;;;;;;;;;;;;;;;;2054492;28;2173;-95
2021/11/13 02:12:45;;;;;;;;;;;;;;;;;;2054224;28;1980;-95
2021/11/13 02:13:48;;;;;;;;;;;;;;;;;;2060262;28;1367;-95
2021/11/13 02:14:50;;;;;;;;;;;;;;;;;;2060465;28;1451;-95
2021/11/13 02:16:01;;;;;;;;;;;;;;;;;;2069144;28;2217;-95
2021/11/13 02:17:10;;;;;;;;;;;;;;;;;;2069292;28;1365;-95
2021/11/13 02:18:15;;;;;;;;;;;;;;;;;;2054647;28;2088;-96
2021/11/13 02:19:21;;;;;;;;;;;;;;;;;;2060491;28;1236;-95
2021/11/13 02:20:27;;;;;;;;;;;;;;;;;;2062172;28;1315;-96
2021/11/13 02:21:40;;;;;;;;;;;;;;;;;;2068955;28;2072;-95
2021/11/13 02:22:41;;;;;;;;;;;;;;;;;;2069524;28;1274;-95
2021/11/13 02:23:57;;;;;;;;;;;;;;;;;;2060727;28;1245;-95
2021/11/13 02:24:58;;;;;;;;;;;;;;;;;;2062782;28;1402;-94
2021/11/13 02:26:04;;;;;;;;;;;;;;;;;;2060755;28;2061;-96
2021/11/13 02:27:06;;;;;;;;;;;;;;;;;;2053862;28;1368;-96
2021/11/13 02:28:16;;;;;;;;;;;;;;;;;;2061901;28;1265;-96
2021/11/13 02:29:17;;;;;;;;;;;;;;;;;;2072754;28;957;-94
2021/11/13 02:30:32;;;;;;;;;;;;;;;;;;2065683;28;1456;-96
2021/11/13 02:31:43;;;;;;;;;;;;;;;;;;2068527;28;2053;-96
2021/11/13 02:32:46;;;;;;;;;;;;;;;;;;2060667;28;1717;-96
2021/11/13 02:35:15;;;;;;;;;;;;;;;;;;2069178;28;1234;-96
2021/11/13 02:36:22;;;;;;;;;;;;;;;;;;2068579;28;1919;-96
2021/11/13 02:37:28;;;;;;;;;;;;;;;;;;2076189;28;896;-96
2021/11/13 02:38:33;;;;;;;;;;;;;;;;;;2075245;28;1954;-96
2021/11/13 02:40:59;;;;;;;;;;;;;;;;;;2061976;28;1119;-96
2021/11/13 02:42:05;;;;;;;;;;;;;;;;;;2054863;29;1122;-95
2021/11/13 02:43:10;;;;;;;;;;;;;;;;;;2057212;28;2052;-96
2021/11/13 02:44:19;;;;;;;;;;;;;;;;;;2065439;28;1302;-96
2021/11/13 02:45:24;;;;;;;;;;;;;;;;;;2066394;28;1346;-95
2021/11/13 02:46:33;;;;;;;;;;;;;;;;;;2070146;28;2053;-96
2021/11/13 02:47:36;;;;;;;;;;;;;;;;;;2066057;28;1293;-95
2021/11/13 02:51:17;;;;;;;;;;;;;;;;;;2075909;28;1280;-95
2021/11/13 02:52:26;;;;;;;;;;;;;;;;;;2065438;28;1254;-96
2021/11/13 02:53:34;;;;;;;;;;;;;;;;;;2067228;28;1589;-96
2021/11/13 02:54:42;;;;;;;;;;;;;;;;;;2074344;28;1061;-96
2021/11/13 02:55:56;;;;;;;;;;;;;;;;;;2081722;28;1234;-96
2021/11/13 02:56:59;;;;;;;;;;;;;;;;;;2065311;28;1370;-94
2021/11/13 02:58:05;;;;;;;;;;;;;;;;;;2066186;28;2031;-96
2021/11/13 02:59:08;;;;;;;;;;;;;;;;;;2073043;28;1251;-96
2021/11/13 03:00:18;;;;;;;;;;;;;;;;;;2074577;28;914;-95
2021/11/13 03:01:21;;;;;;;;;;;;;;;;;;2072921;28;1846;-95
2021/11/13 03:02:25;;;;;;;;;;;;;;;;;;2065985;28;1297;-96
2021/11/13 03:03:29;;;;;;;;;;;;;;;;;;2066452;28;841;-96
2021/11/13 03:04:40;;;;;;;;;;;;;;;;;;2066082;28;1251;-96
2021/11/13 03:05:46;;;;;;;;;;;;;;;;;;2058733;28;1370;-95
2021/11/13 03:06:52;;;;;;;;;;;;;;;;;;2057810;29;1221;-96
2021/11/13 03:08:00;;;;;;;;;;;;;;;;;;2051717;28;2076;-96
2021/11/13 03:09:04;;;;;;;;;;;;;;;;;;2057858;28;1161;-95
2021/11/13 03:10:12;;;;;;;;;;;;;;;;;;2057651;29;1155;-96
2021/11/13 03:11:18;;;;;;;;;;;;;;;;;;2051003;28;1469;-96
2021/11/13 03:12:19;;;;;;;;;;;;;;;;;;2056690;28;1258;-95
2021/11/13 03:13:29;;;;;;;;;;;;;;;;;;2062374;28;1240;-96
2021/11/13 03:14:39;;;;;;;;;;;;;;;;;;2057012;28;1011;-96
2021/11/13 03:15:44;;;;;;;;;;;;;;;;;;2050332;29;1373;-95
2021/11/13 03:16:56;;;;;;;;;;;;;;;;;;2049663;29;1921;-95
2021/11/13 03:17:58;;;;;;;;;;;;;;;;;;2051279;28;1950;-95
2021/11/13 03:19:05;;;;;;;;;;;;;;;;;;2062982;28;1968;-94
2021/11/13 03:20:07;;;;;;;;;;;;;;;;;;2059883;28;1300;-93
2021/11/13 03:21:15;;;;;;;;;;;;;;;;;;2051099;28;1344;-94
2021/11/13 03:22:18;;;;;;;;;;;;;;;;;;2061133;28;1193;-93
2021/11/13 03:23:24;;;;;;;;;;;;;;;;;;2054160;28;2064;-93
2021/11/13 03:24:27;;;;;;;;;;;;;;;;;;2044530;29;1335;-92
2021/11/13 03:25:36;;;;;;;;;;;;;;;;;;2044502;29;1187;-93
2021/11/13 03:26:38;;;;;;;;;;;;;;;;;;2052941;28;1309;-93
2021/11/13 03:27:54;;;;;;;;;;;;;;;;;;2051569;29;1437;-93
2021/11/13 03:28:57;;;;;;;;;;;;;;;;;;2046053;29;1224;-93
2021/11/13 03:30:01;;;;;;;;;;;;;;;;;;2043652;29;1392;-94
2021/11/13 03:31:08;;;;;;;;;;;;;;;;;;2051914;28;1245;-93
2021/11/13 03:32:11;;;;;;;;;;;;;;;;;;2051939;29;1272;-93
2021/11/13 03:33:14;;;;;;;;;;;;;;;;;;2043944;29;1300;-94
2021/11/13 03:35:38;;;;;;;;;;;;;;;;;;2054142;28;948;-94
2021/11/13 03:36:40;;;;;;;;;;;;;;;;;;2051477;29;1230;-93
2021/11/13 03:37:56;;;;;;;;;;;;;;;;;;2043819;29;1323;-93
2021/11/13 03:40:18;;;;;;;;;;;;;;;;;;2046088;29;1536;-94
2021/11/13 03:41:20;;;;;;;;;;;;;;;;;;2047907;28;2169;-95
2021/11/13 03:42:24;;;;;;;;;;;;;;;;;;2059360;28;1327;-94
2021/11/13 03:43:26;;;;;;;;;;;;;;;;;;2048598;29;1448;-94
2021/11/13 03:44:28;;;;;;;;;;;;;;;;;;2035865;29;1450;-94
2021/11/13 03:45:30;;;;;;;;;;;;;;;;;;2035620;29;1354;-95
2021/11/13 03:46:35;;;;;;;;;;;;;;;;;;2043508;29;1193;-94
2021/11/13 03:47:46;;;;;;;;;;;;;;;;;;2044025;29;1422;-95
2021/11/13 03:48:48;;;;;;;;;;;;;;;;;;2051449;29;1296;-95
2021/11/13 03:49:50;;;;;;;;;;;;;;;;;;2043668;29;1098;-94
2021/11/13 03:50:54;;;;;;;;;;;;;;;;;;2044348;29;1205;-94
2021/11/13 03:51:57;;;;;;;;;;;;;;;;;;2035744;29;1755;-94
2021/11/13 03:52:59;;;;;;;;;;;;;;;;;;2043879;28;1280;-93
2021/11/13 03:54:06;;;;;;;;;;;;;;;;;;2051758;29;1416;-94
2021/11/13 03:55:08;;;;;;;;;;;;;;;;;;2043496;29;1429;-94
2021/11/13 03:56:12;;;;;;;;;;;;;;;;;;2051906;28;1157;-95
2021/11/13 03:57:13;;;;;;;;;;;;;;;;;;2059365;28;1097;-95
2021/11/13 03:58:15;;;;;;;;;;;;;;;;;;2051084;28;1314;-95
2021/11/13 03:59:16;;;;;;;;;;;;;;;;;;2044151;29;1978;-94
2021/11/13 04:00:22;;;;;;;;;;;;;;;;;;2054188;28;1398;-95
2021/11/13 04:01:24;;;;;;;;;;;;;;;;;;2053163;29;1362;-96
2021/11/13 04:02:28;;;;;;;;;;;;;;;;;;2045594;29;1205;-95
2021/11/13 04:03:29;;;;;;;;;;;;;;;;;;2054353;28;956;-95
2021/11/13 04:04:33;;;;;;;;;;;;;;;;;;2046822;29;1249;-94
2021/11/13 04:05:35;;;;;;;;;;;;;;;;;;2039826;29;1449;-95
2021/11/13 04:06:42;;;;;;;;;;;;;;;;;;2054311;28;1462;-95
2021/11/13 04:07:43;;;;;;;;;;;;;;;;;;2062356;28;1469;-95
2021/11/13 04:08:47;;;;;;;;;;;;;;;;;;2059235;28;1445;-95
2021/11/13 04:09:55;;;;;;;;;;;;;;;;;;2059052;28;1297;-96
2021/11/13 04:11:07;;;;;;;;;;;;;;;;;;2059016;28;1450;-95
2021/11/13 04:12:10;;;;;;;;;;;;;;;;;;2052259;28;1331;-95
2021/11/13 04:13:14;;;;;;;;;;;;;;;;;;2051002;28;1281;-95
2021/11/13 04:14:23;;;;;;;;;;;;;;;;;;2051193;29;1315;-94
2021/11/13 04:15:27;;;;;;;;;;;;;;;;;;2052001;28;1473;-94
2021/11/13 04:16:28;;;;;;;;;;;;;;;;;;2059586;28;1288;-95
2021/11/13 04:17:30;;;;;;;;;;;;;;;;;;2057487;28;1325;-95
2021/11/13 04:18:33;;;;;;;;;;;;;;;;;;2063085;28;1910;-96
2021/11/13 04:19:36;;;;;;;;;;;;;;;;;;2062673;28;1331;-96
2021/11/13 04:20:37;;;;;;;;;;;;;;;;;;2054695;28;1387;-96
2021/11/13 04:21:41;;;;;;;;;;;;;;;;;;2060540;28;1933;-95
2021/11/13 04:22:42;;;;;;;;;;;;;;;;;;2070891;28;1227;-96
2021/11/13 04:23:47;;;;;;;;;;;;;;;;;;2070065;28;1299;-95
2021/11/13 04:24:51;;;;;;;;;;;;;;;;;;2062858;28;1238;-95
2021/11/13 04:25:56;;;;;;;;;;;;;;;;;;2062364;28;1399;-95
2021/11/13 04:26:58;;;;;;;;;;;;;;;;;;2062967;28;1223;-93
2021/11/13 04:28:02;;;;;;;;;;;;;;;;;;2070447;28;1230;-96
2021/11/13 04:29:03;;;;;;;;;;;;;;;;;;2069953;28;1211;-95
2021/11/13 04:30:09;;;;;;;;;;;;;;;;;;2054376;28;1194;-96
2021/11/13 04:31:12;;;;;;;;;;;;;;;;;;2065419;28;2147;-95
2021/11/13 04:33:31;;;;;;;;;;;;;;;;;;2064570;28;1593;-96
2021/11/13 04:34:43;;;;;;;;;;;;;;;;;;2070866;28;1337;-96
2021/11/13 04:35:49;;;;;;;;;;;;;;;;;;2055818;28;1322;-96
2021/11/13 04:36:53;;;;;;;;;;;;;;;;;;2055083;28;1487;-95
2021/11/13 04:37:58;;;;;;;;;;;;;;;;;;2061371;28;1474;-96
2021/11/13 04:39:01;;;;;;;;;;;;;;;;;;2068637;28;1973;-95
2021/11/13 04:40:08;;;;;;;;;;;;;;;;;;2068948;28;969;-95
2021/11/13 04:41:16;;;;;;;;;;;;;;;;;;2076558;28;996;-95
2021/11/13 04:42:18;;;;;;;;;;;;;;;;;;2077026;28;1101;-95
2021/11/13 04:43:20;;;;;;;;;;;;;;;;;;2067764;28;1366;-95
2021/11/13 04:44:21;;;;;;;;;;;;;;;;;;2059703;28;1248;-95
2021/11/13 04:45:24;;;;;;;;;;;;;;;;;;2059684;28;1220;-95
2021/11/13 04:46:25;;;;;;;;;;;;;;;;;;2067551;28;1307;-96
2021/11/13 04:47:31;;;;;;;;;;;;;;;;;;2068145;28;927;-95
2021/11/13 04:48:40;;;;;;;;;;;;;;;;;;2076702;28;872;-95
2021/11/13 04:49:41;;;;;;;;;;;;;;;;;;2075810;28;1281;-94
2021/11/13 04:50:45;;;;;;;;;;;;;;;;;;2060098;28;1333;-95
2021/11/13 04:51:46;;;;;;;;;;;;;;;;;;2051867;28;1237;-95
2021/11/13 04:52:52;;;;;;;;;;;;;;;;;;2059420;28;1283;-95
2021/11/13 04:53:54;;;;;;;;;;;;;;;;;;2060180;28;1463;-95
2021/11/13 04:54:57;;;;;;;;;;;;;;;;;;2067809;28;873;-95
2021/11/13 04:56:01;;;;;;;;;;;;;;;;;;2067842;28;1551;-95
2021/11/13 04:57:05;;;;;;;;;;;;;;;;;;2059957;28;1337;-94
2021/11/13 04:58:10;;;;;;;;;;;;;;;;;;2067542;28;1322;-94
2021/11/13 04:59:13;;;;;;;;;;;;;;;;;;2067146;28;1918;-95
2021/11/13 05:00:18;;;;;;;;;;;;;;;;;;2068036;28;851;-95
2021/11/13 05:01:20;;;;;;;;;;;;;;;;;;2067639;28;1431;-94
2021/11/13 05:02:24;;;;;;;;;;;;;;;;;;2067765;28;1244;-94
2021/11/13 05:03:25;;;;;;;;;;;;;;;;;;2067222;28;1259;-95
2021/11/13 05:04:30;;;;;;;;;;;;;;;;;;2061062;28;1348;-96
2021/11/13 05:05:34;;;;;;;;;;;;;;;;;;2061288;28;1472;-96
2021/11/13 05:06:37;;;;;;;;;;;;;;;;;;2053029;28;1301;-92
2021/11/13 05:07:37;;;;;;;;;;;;;;;;;;2067158;28;1311;-93
2021/11/13 05:08:40;;;;;;;;;;;;;;;;;;2058843;28;1443;-93
2021/11/13 05:09:44;;;;;;;;;;;;;;;;;;2059364;28;872;-93
2021/11/13 05:10:48;;;;;;;;;;;;;;;;;;2059143;28;1288;-92
2021/11/13 05:11:49;;;;;;;;;;;;;;;;;;2056273;28;1514;-94
2021/11/13 05:12:53;;;;;;;;;;;;;;;;;;2051982;28;1099;-93
2021/11/13 05:13:54;;;;;;;;;;;;;;;;;;2050815;28;1400;-93
2021/11/13 05:14:56;;;;;;;;;;;;;;;;;;2058098;28;1379;-92
2021/11/13 05:15:58;;;;;;;;;;;;;;;;;;2050717;28;1305;-95
2021/11/13 05:16:59;;;;;;;;;;;;;;;;;;2058936;28;1090;-96
2021/11/13 05:18:02;;;;;;;;;;;;;;;;;;2058475;28;1474;-94
2021/11/13 05:19:02;;;;;;;;;;;;;;;;;;2050597;28;1923;-91
2021/11/13 05:21:21;;;;;;;;;;;;;;;;;;2064278;28;1708;-92
2021/11/13 05:22:23;;;;;;;;;;;;;;;;;;2058705;28;1327;-92
2021/11/13 05:23:25;;;;;;;;;;;;;;;;;;2058760;28;1475;-94
2021/11/13 05:24:26;;;;;;;;;;;;;;;;;;2066589;28;1244;-93
2021/11/13 05:25:28;;;;;;;;;;;;;;;;;;2066472;28;1224;-92
2021/11/13 05:26:32;;;;;;;;;;;;;;;;;;2066483;28;1270;-94
2021/11/13 05:27:34;;;;;;;;;;;;;;;;;;2057997;28;1321;-94
2021/11/13 05:28:43;;;;;;;;;;;;;;;;;;2058458;28;1316;-93
2021/11/13 05:29:48;;;;;;;;;;;;;;;;;;2051827;28;1359;-93
2021/11/13 05:30:50;;;;;;;;;;;;;;;;;;2067324;28;1327;-93
2021/11/13 05:31:51;;;;;;;;;;;;;;;;;;2066447;28;1272;-93
2021/11/13 05:32:55;;;;;;;;;;;;;;;;;;2059215;28;1323;-93
2021/11/13 05:33:57;;;;;;;;;;;;;;;;;;2050943;28;1244;-93
2021/11/13 05:34:59;;;;;;;;;;;;;;;;;;2050728;28;1261;-94
2021/11/13 05:36:00;;;;;;;;;;;;;;;;;;2050740;28;1350;-91
2021/11/13 05:37:02;;;;;;;;;;;;;;;;;;2058385;28;1327;-94
2021/11/13 05:38:03;;;;;;;;;;;;;;;;;;2050985;28;1184;-94
2021/11/13 05:39:21;;;;;;;;;;;;;;;;;;2054737;28;1919;-96
2021/11/13 05:40:21;;;;;;;;;;;;;;;;;;2062054;28;1331;-96
2021/11/13 05:41:24;;;;;;;;;;;;;;;;;;2058246;28;1293;-96
2021/11/13 05:42:38;;;;;;;;;;;;;;;;;;2059151;28;1196;-95
2021/11/13 05:43:40;;;;;;;;;;;;;;;;;;2058589;28;2105;-95
2021/11/13 05:44:42;;;;;;;;;;;;;;;;;;2050676;28;1187;-95
2021/11/13 05:45:53;;;;;;;;;;;;;;;;;;2050493;28;1330;-94
2021/11/13 05:47:01;;;;;;;;;;;;;;;;;;2055743;28;1324;-94
2021/11/13 05:48:05;;;;;;;;;;;;;;;;;;2057175;28;1212;-95
2021/11/13 05:49:06;;;;;;;;;;;;;;;;;;2042649;29;1447;-94
2021/11/13 05:50:12;;;;;;;;;;;;;;;;;;2043573;28;1229;-95
2021/11/13 05:51:17;;;;;;;;;;;;;;;;;;2058700;28;1495;-96
2021/11/13 05:52:19;;;;;;;;;;;;;;;;;;2051879;28;1255;-95
2021/11/13 05:53:23;;;;;;;;;;;;;;;;;;2050974;28;1449;-95
2021/11/13 05:54:32;;;;;;;;;;;;;;;;;;2050780;28;1513;-94
2021/11/13 05:55:35;;;;;;;;;;;;;;;;;;2051676;28;1293;-96
2021/11/13 05:56:36;;;;;;;;;;;;;;;;;;2056761;28;2191;-94
2021/11/13 05:57:38;;;;;;;;;;;;;;;;;;2058120;28;1254;-93
2021/11/13 05:58:40;;;;;;;;;;;;;;;;;;2058435;28;1275;-93
2021/11/13 05:59:43;;;;;;;;;;;;;;;;;;2058133;28;1894;-92
2021/11/13 06:00:45;;;;;;;;;;;;;;;;;;2058773;28;1217;-92
2021/11/13 06:01:45;;;;;;;;;;;;;;;;;;2058383;28;1351;-92
2021/11/13 06:02:48;;;;;;;;;;;;;;;;;;2059378;28;1320;-93
2021/11/13 06:03:49;;;;;;;;;;;;;;;;;;2058554;28;1302;-92
2021/11/13 06:04:51;;;;;;;;;;;;;;;;;;2058535;28;1225;-91
2021/11/13 06:05:55;;;;;;;;;;;;;;;;;;2058410;28;1323;-94
2021/11/13 06:07:00;;;;;;;;;;;;;;;;;;2058814;28;1384;-93
2021/11/13 06:08:03;;;;;;;;;;;;;;;;;;2050414;29;1326;-94
2021/11/13 06:09:04;;;;;;;;;;;;;;;;;;2050445;28;1327;-93
2021/11/13 06:10:07;;;;;;;;;;;;;;;;;;2050641;29;1356;-94
2021/11/13 06:11:14;;;;;;;;;;;;;;;;;;2060248;28;1663;-95
2021/11/13 06:12:16;;;;;;;;;;;;;;;;;;2058438;28;1629;-93
2021/11/13 06:13:23;;;;;;;;;;;;;;;;;;2066365;28;1481;-94
2021/11/13 06:14:27;;;;;;;;;;;;;;;;;;2066965;28;1060;-95
2021/11/13 06:15:32;;;;;;;;;;;;;;;;;;2066171;28;1363;-93
2021/11/13 06:16:33;;;;;;;;;;;;;;;;;;2058994;28;1287;-93
2021/11/13 06:17:35;;;;;;;;;;;;;;;;;;2058401;28;1332;-92
2021/11/13 06:18:38;;;;;;;;;;;;;;;;;;2050793;28;1426;-90
2021/11/13 06:19:39;;;;;;;;;;;;;;;;;;2050550;28;1985;-94
2021/11/13 06:20:41;;;;;;;;;;;;;;;;;;2058314;28;1413;-93
2021/11/13 06:21:42;;;;;;;;;;;;;;;;;;2066780;28;832;-92
2021/11/13 06:22:44;;;;;;;;;;;;;;;;;;2066601;28;1245;-92
2021/11/13 06:23:45;;;;;;;;;;;;;;;;;;2050623;28;1216;-92
2021/11/13 06:24:47;;;;;;;;;;;;;;;;;;2051746;28;1296;-94
2021/11/13 06:25:48;;;;;;;;;;;;;;;;;;2051485;28;1257;-94
2021/11/13 06:26:51;;;;;;;;;;;;;;;;;;2045673;29;1636;-93
2021/11/13 06:28:02;;;;;;;;;;;;;;;;;;2051941;28;1739;-94
2021/11/13 06:29:28;;;;;;;;;;;;;;;;;;2069475;28;1118;-91
2021/11/13 06:31:09;;;;;;;;;;;;;;;;;;2065120;28;993;-94
2021/11/13 06:32:36;;;;;;;;;;;;;;;;;;2065284;28;1482;-93
2021/11/13 06:34:13;;;;;;;;;;;;;;;;;;2059651;28;2114;-92
2021/11/13 06:35:40;;;;;;;;;;;;;;;;;;2059836;28;1456;-94
2021/11/13 06:37:05;;;;;;;;;;;;;;;;;;2063055;28;1239;-92
2021/11/13 06:40:10;;;;;;;;;;;;;;;;;;2063270;28;1987;-90
2021/11/13 06:41:31;;;;;;;;;;;;;;;;;;2055394;28;1273;-91
2021/11/13 06:42:52;;;;;;;;;;;;;;;;;;2048805;28;1396;-89
2021/11/13 06:44:11;;;;;;;;;;;;;;;;;;2057260;28;942;-90
2021/11/13 06:45:29;;;;;;;;;;;;;;;;;;2051323;29;1575;-90
2021/11/13 06:46:58;;;;;;;;;;;;;;;;;;2063202;28;919;-91
2021/11/13 06:48:16;;;;;;;;;;;;;;;;;;2067780;28;2066;-92
2021/11/13 06:49:36;;;;;;;;;;;;;;;;;;2059171;28;1274;-91
2021/11/13 06:52:32;;;;;;;;;;;;;;;;;;2070204;28;1359;-92
2021/11/13 06:54:58;;;;;;;;;;;;;;;;;;2067155;28;1523;-90
2021/11/13 06:56:05;;;;;;;;;;;;;;;;;;2060282;28;2160;-92
2021/11/13 06:57:38;;;;;;;;;;;;;;;;;;2068258;28;1235;-92
2021/11/13 07:00:43;;;;;;;;;;;;;;;;;;2046596;29;1915;-92
2021/11/13 07:01:53;;;;;;;;;;;;;;;;;;2043732;29;1408;-92
2021/11/13 07:03:02;;;;;;;;;;;;;;;;;;2043370;29;1701;-88
2021/11/13 07:04:04;;;;;;;;;;;;;;;;;;2044043;29;1734;-89
2021/11/13 07:05:08;;;;;;;;;;;;;;;;;;2043074;29;1445;-89
2021/11/13 07:06:11;;;;;;;;;;;;;;;;;;2043190;29;1440;-89
2021/11/13 07:07:13;;;;;;;;;;;;;;;;;;2042973;29;1302;-89
2021/11/13 07:09:36;;;;;;;;;;;;;;;;;;2044498;28;1716;-88
2021/11/13 07:10:37;;;;;;;;;;;;;;;;;;2048392;28;1387;-90
2021/11/13 07:11:55;;;;;;;;;;;;;;;;;;2051346;28;1315;-92
2021/11/13 07:13:18;;;;;;;;;;;;;;;;;;2051289;29;1310;-92
2021/11/13 07:14:27;;;;;;;;;;;;;;;;;;2038415;29;1496;-92
2021/11/13 07:16:57;;;;;;;;;;;;;;;;;;2050041;28;1408;-90
2021/11/13 07:18:10;;;;;;;;;;;;;;;;;;2052158;28;1446;-92
2021/11/13 07:19:11;;;;;;;;;;;;;;;;;;2048112;29;1557;-90
2021/11/13 07:20:22;;;;;;;;;;;;;;;;;;2042698;29;1906;-90
2021/11/13 07:23:55;;;;;;;;;;;;;;;;;;2038444;29;1972;-93
2021/11/13 07:25:00;;;;;;;;;;;;;;;;;;2043428;29;1276;-91
2021/11/13 07:26:04;;;;;;;;;;;;;;;;;;2035674;29;1438;-93
2021/11/13 07:27:05;;;;;;;;;;;;;;;;;;2041664;28;1451;-93
2021/11/13 07:28:14;;;;;;;;;;;;;;;;;;2047691;28;1355;-93
2021/11/13 07:31:11;;;;;;;;;;;;;;;;;;2061310;28;1398;-92
2021/11/13 07:32:13;;;;;;;;;;;;;;;;;;2059769;28;910;-88
2021/11/13 07:33:20;;;;;;;;;;;;;;;;;;2054146;28;2086;-85
2021/11/13 07:34:23;;;;;;;;;;;;;;;;;;2039670;29;1345;-88
2021/11/13 07:35:26;;;;;;;;;;;;;;;;;;2051182;28;1190;-93
2021/11/13 07:36:53;;;;;;;;;;;;;;;;;;2044114;29;1367;-95
2021/11/13 07:38:02;;;;;;;;;;;;;;;;;;2035348;29;1356;-93
2021/11/13 07:39:08;;;;;;;;;;;;;;;;;;2035352;29;1267;-93
2021/11/13 07:40:32;;;;;;;;;;;;;;;;;;2047740;28;1910;-94
2021/11/13 07:41:36;;;;;;;;;;;;;;;;;;2050608;29;1338;-84
2021/11/13 07:42:40;;;;;;;;;;;;;;;;;;2043587;29;1472;-91
2021/11/13 07:45:17;;;;;;;;;;;;;;;;;;2045429;29;1077;-91
2021/11/13 07:46:19;;;;;;;;;;;;;;;;;;2042637;29;1320;-93
2021/11/13 07:47:44;;;;;;;;;;;;;;;;;;2037479;28;1487;-93
2021/11/13 07:49:35;;;;;;;;;;;;;;;;;;2043604;28;1461;-91
2021/11/13 07:50:37;;;;;;;;;;;;;;;;;;2040927;29;1340;-93
2021/11/13 07:51:53;;;;;;;;;;;;;;;;;;2036078;29;1511;-93
2021/11/13 07:52:55;;;;;;;;;;;;;;;;;;2047785;28;1400;-93
2021/11/13 07:54:05;;;;;;;;;;;;;;;;;;2050634;29;1407;-94
2021/11/13 07:55:18;;;;;;;;;;;;;;;;;;2044853;29;1327;-94
2021/11/13 07:56:20;;;;;;;;;;;;;;;;;;2051929;28;1327;-92
2021/11/13 07:57:31;;;;;;;;;;;;;;;;;;2051399;28;1376;-91
2021/11/13 07:58:35;;;;;;;;;;;;;;;;;;2052210;28;2063;-89
2021/11/13 07:59:38;;;;;;;;;;;;;;;;;;2057403;28;1433;-89
2021/11/13 08:00:41;;;;;;;;;;;;;;;;;;2053351;28;1922;-88
2021/11/13 08:01:42;;;;;;;;;;;;;;;;;;2058875;28;1197;-88
2021/11/13 08:02:44;;;;;;;;;;;;;;;;;;2059238;28;1263;-91
2021/11/13 08:03:52;;;;;;;;;;;;;;;;;;2051164;28;1170;-92
2021/11/13 08:05:01;;;;;;;;;;;;;;;;;;2052325;28;1365;-93
2021/11/13 08:08:18;;;;;;;;;;;;;;;;;;2055428;28;1432;-92
2021/11/13 08:09:19;;;;;;;;;;;;;;;;;;2058105;28;1296;-90
2021/11/13 08:10:22;;;;;;;;;;;;;;;;;;2075563;28;910;-90
2021/11/13 08:11:23;;;;;;;;;;;;;;;;;;2069600;28;2119;-89
2021/11/13 08:12:31;;;;;;;;;;;;;;;;;;2059982;28;1410;-90
2021/11/13 08:14:04;;;;;;;;;;;;;;;;;;2052452;28;2095;-90
2021/11/13 08:15:25;;;;;;;;;;;;;;;;;;2062239;28;1351;-92
2021/11/13 08:16:27;;;;;;;;;;;;;;;;;;2066374;28;1332;-92
2021/11/13 08:17:41;;;;;;;;;;;;;;;;;;2063587;28;1415;-92